Greater Rochester International Airport
KROC : rendu visible

Aérodrome :











RETROUVEZ-NOUS SUR...

 
LOGIN :

S'inscrire | Disclaimer

   EN    FR    IT 

 









Légende :    VFR   VFR Marginal   IFR   IFR Intensif   IFR Très Intensif
Visi : 
Plafond : 
>= 8 km
>= 3000ft
5 à 8 km
1000 à 3000 ft
1500m à 5 km
500 à 1000 ft
800 à 1500m
200 à 500 ft
< 800m
< 200 ft
Symboles :   Orages  Brouillard  Fortes neiges  Fortes précipitations  Vent > 20 kt






- Altitude de l'aérodrome : 559 ft
- Code IATA : ROC


KROC - Greater Rochester International

DERNIER METAR :
  • 121016Z 35010KT 4SM -SN BR BKN010 BKN019 OVC025 M04/M06 A2998 RMK AO2 P0001 T10441061

METARs EXPIRÉS :
  • 120954Z 36008KT 2SM -SN BR SCT010 OVC015 M04/M06 A2998 RMK AO2 SLP161 P0003 T10441061
  • 120854Z 36008KT 3/4SM R04/5000V6000FT -SN BR OVC009 M04/M06 A2997 RMK AO2 SLP158 SNINCR 1/9 P0003 60012 T10441056 53010
  • 120754Z 01010KT 3/4SM R04/5000V6000FT -SN BR BKN008 OVC011 M04/M05 A2994 RMK AO2 SLP150 P0003 T10391050

TAF KROC
Valide du 12 à 09h jusqu'au 13 à 06h UTC


120912Z 1209/1306 36008KT 3/4SM -SN BR OVC009
FM121100 34013G20KT 4SM -SN BR OVC015
TEMPO 1211/1213 2SM -SHSN OVC010
FM121500 31014KT P6SM OVC020
FM121700 31015G21KT P6SM BKN035
FM130200 29014G23KT 4SM -SHSN BKN030



MET'MAP, la Météo Aéronautique d'un coup d'oeil ! - Copyright ORBIFLY Décembre 2007 - Disclaimer

ORBIFLY MET'MAP TEAM :

Programmation & Développement : Alexandra Zaïnal
Conception & Développement : Baudouin d'Aumeries
Co-Programmation & Développement : Marc-Olivier Méhu
Soutien technique & logistique : Manuel Goepfert

Contact : metmap@orbifly.com




SOURCES & CREDITS :

   NOAA       Earth
Advisory